Time;durP1;ratioP1;P1;durP2;ratioP2;P2;SDS_P1;SDS_P2;PMS_P1;PMS_P2;Temp;Humidity;BMP_temperature;BMP_pressure;BME280_temperature;BME280_humidity;BME280_pressure;Samples;Min_cycle;Max_cycle;Signal;HPM_P1;HPM_P2
2021/01/31 00:00:50;;;;;;;38.50;19.45;;;;;;;1.16;72.33;99774.41;1768166;81;25581;-56
2021/01/31 00:03:26;;;;;;;40.65;20.82;;;;;;;1.17;72.23;99779.59;1768055;81;25642;-56
2021/01/31 00:06:03;;;;;;;39.70;22.13;;;;;;;1.19;72.03;99786.97;1782057;79;25644;-56
2021/01/31 00:08:32;;;;;;;35.73;19.55;;;;;;;1.20;71.59;99780.72;1729772;82;27725;-56
2021/01/31 00:11:01;;;;;;;36.15;19.92;;;;;;;1.17;70.91;99791.52;1797950;79;26553;-56
2021/01/31 00:13:29;;;;;;;43.25;20.57;;;;;;;1.09;70.56;99814.52;1729792;82;25683;-56
2021/01/31 00:15:58;;;;;;;38.15;20.40;;;;;;;1.05;70.62;99822.30;1729707;82;25691;-55
2021/01/31 00:18:30;;;;;;;37.63;19.52;;;;;;;0.99;70.59;99833.75;1729826;82;25727;-56
2021/01/31 00:20:59;;;;;;;42.20;21.02;;;;;;;0.98;70.70;99833.37;1729734;82;28591;-56
2021/01/31 00:23:27;;;;;;;38.50;21.17;;;;;;;0.96;70.61;99845.40;1797874;79;25682;-56
2021/01/31 00:25:57;;;;;;;36.95;20.37;;;;;;;0.84;70.43;99856.75;1729369;82;25679;-56
2021/01/31 00:28:27;;;;;;;39.10;21.23;;;;;;;0.75;70.74;99848.45;1727475;82;25801;-55
2021/01/31 00:30:57;;;;;;;45.80;23.10;;;;;;;0.70;70.78;99845.70;1724195;83;25755;-56
2021/01/31 00:33:31;;;;;;;38.38;20.65;;;;;;;0.70;71.00;99851.00;1726214;82;27578;-56
2021/01/31 00:35:59;;;;;;;35.33;18.12;;;;;;;0.65;70.66;99863.68;1801067;79;25500;-56
2021/01/31 00:38:28;;;;;;;47.98;24.12;;;;;;;0.58;70.58;99863.20;1808581;79;25835;-55
2021/01/31 00:40:56;;;;;;;51.63;25.45;;;;;;;0.53;70.64;99874.07;1807328;79;25445;-56
2021/01/31 00:43:27;;;;;;;51.95;23.67;;;;;;;0.48;70.88;99885.42;1806526;79;26021;-56
2021/01/31 00:45:56;;;;;;;49.27;23.40;;;;;;;0.46;70.74;99883.34;1806483;78;27399;-55
2021/01/31 00:48:25;;;;;;;42.10;21.60;;;;;;;0.41;70.80;99891.55;1737811;82;25803;-55
2021/01/31 00:50:54;;;;;;;43.20;23.60;;;;;;;0.42;70.70;99893.71;1749226;82;25518;-56
2021/01/31 00:53:23;;;;;;;42.05;22.87;;;;;;;0.44;70.80;99893.16;1737862;82;26914;-56
2021/01/31 00:55:53;;;;;;;48.28;23.77;;;;;;;0.53;70.84;99905.83;1721454;82;25701;-56
2021/01/31 00:58:23;;;;;;;45.28;23.10;;;;;;;0.64;70.67;99904.33;1719854;83;27540;-56
2021/01/31 01:00:52;;;;;;;42.70;21.82;;;;;;;0.68;70.30;99915.95;1720898;83;26171;-55
2021/01/31 01:03:21;;;;;;;44.42;22.15;;;;;;;0.69;70.13;99935.33;1720865;83;25794;-55
2021/01/31 01:06:05;;;;;;;40.83;22.80;;;;;;;0.72;69.85;99929.38;1817006;78;25580;-56
2021/01/31 01:08:33;;;;;;;39.48;21.62;;;;;;;0.70;69.77;99925.13;1776510;80;26036;-57
2021/01/31 01:11:01;;;;;;;36.60;20.08;;;;;;;0.70;69.70;99931.73;1776606;80;28447;-57
2021/01/31 01:13:29;;;;;;;35.00;21.80;;;;;;;0.73;69.54;99932.89;1805484;78;26111;-56
2021/01/31 01:15:59;;;;;;;31.35;17.70;;;;;;;0.70;69.32;99933.06;1808513;79;25721;-57
2021/01/31 01:18:27;;;;;;;37.23;19.82;;;;;;;0.62;69.11;99950.27;1808761;79;25745;-57
2021/01/31 01:20:55;;;;;;;35.38;21.02;;;;;;;0.57;69.36;99937.80;1808571;79;25688;-57
2021/01/31 01:23:23;;;;;;;34.90;19.90;;;;;;;0.53;69.45;99932.78;1794113;79;27541;-57
2021/01/31 01:25:52;;;;;;;36.60;19.87;;;;;;;0.51;69.70;99939.95;1773493;80;25732;-57
2021/01/31 01:28:20;;;;;;;31.15;18.23;;;;;;;0.46;69.87;99941.06;1773707;80;25508;-57
2021/01/31 01:30:49;;;;;;;35.28;19.48;;;;;;;0.40;70.09;99948.06;1773648;80;26179;-57
2021/01/31 01:33:17;;;;;;;30.30;17.10;;;;;;;0.36;70.04;99953.14;1773678;80;25655;-56
2021/01/31 01:35:45;;;;;;;27.22;15.70;;;;;;;0.31;69.67;99949.92;1773770;80;26823;-57
2021/01/31 01:38:13;;;;;;;33.15;16.57;;;;;;;0.28;69.26;99950.97;1773682;80;25635;-57
2021/01/31 01:40:42;;;;;;;32.60;16.48;;;;;;;0.27;69.21;99945.29;1789219;79;25731;-57
2021/01/31 01:43:19;;;;;;;27.50;14.25;;;;;;;0.30;69.27;99954.38;1735414;82;25673;-57
2021/01/31 01:46:19;;;;;;;29.85;16.27;;;;;;;0.37;69.25;99941.61;1736858;82;25745;-57
2021/01/31 01:48:58;;;;;;;32.75;17.55;;;;;;;0.41;68.82;99945.80;1740958;82;27625;-57
2021/01/31 01:51:43;;;;;;;31.12;16.35;;;;;;;0.42;68.85;99955.44;1740822;82;25766;-57
2021/01/31 01:54:17;;;;;;;35.15;18.85;;;;;;;0.43;68.76;99962.89;1710891;82;25712;-57
2021/01/31 01:56:53;;;;;;;33.80;18.50;;;;;;;0.43;68.93;99965.55;1715706;83;26214;-57
2021/01/31 01:59:22;;;;;;;36.60;19.37;;;;;;;0.42;69.03;99968.67;1715709;83;25668;-57
2021/01/31 02:02:20;;;;;;;33.13;17.75;;;;;;;0.42;69.00;99985.87;1739403;82;27611;-57
2021/01/31 02:04:49;;;;;;;33.25;16.80;;;;;;;0.44;69.00;99992.39;1706176;82;25461;-57
2021/01/31 02:07:21;;;;;;;33.13;17.23;;;;;;;0.38;68.96;99987.47;1726445;83;25693;-57
2021/01/31 02:09:51;;;;;;;28.92;16.48;;;;;;;0.34;69.02;99989.45;1726557;82;25660;-57
2021/01/31 02:12:24;;;;;;;34.45;18.60;;;;;;;0.34;69.11;99995.19;1722671;82;25658;-57
2021/01/31 02:14:56;;;;;;;29.63;16.73;;;;;;;0.31;69.11;100006.81;1711278;83;27987;-57
2021/01/31 02:17:48;;;;;;;39.75;17.67;;;;;;;0.23;69.21;100025.77;1710693;83;26141;-56
2021/01/31 02:20:50;;;;;;;38.88;17.27;;;;;;;0.18;69.36;100026.51;1710760;83;25552;-57
2021/01/31 02:23:49;;;;;;;37.13;20.40;;;;;;;0.15;69.57;100022.25;1712525;80;25678;-56
2021/01/31 02:26:40;;;;;;;35.70;18.55;;;;;;;0.13;69.70;100015.35;1807224;78;25746;-57
2021/01/31 02:29:35;;;;;;;35.33;18.92;;;;;;;0.08;69.67;100018.72;1799631;79;27530;-56
2021/01/31 02:32:14;;;;;;;32.03;17.73;;;;;;;0.09;69.77;100022.58;1790194;79;25644;-57
2021/01/31 02:35:11;;;;;;;31.62;17.32;;;;;;;0.10;69.51;100032.22;1799945;79;25474;-57
2021/01/31 02:37:59;;;;;;;31.57;17.10;;;;;;;0.12;69.44;100041.41;1799234;79;25682;-56
2021/01/31 02:40:45;;;;;;;33.98;16.60;;;;;;;0.11;69.31;100033.09;1768499;79;25586;-56
2021/01/31 02:43:30;;;;;;;28.77;17.02;;;;;;;0.06;69.04;100036.00;1684238;83;27550;-56
2021/01/31 02:46:16;;;;;;;28.47;15.55;;;;;;;0.02;69.07;100046.84;1705512;84;25659;-56
2021/01/31 02:49:21;;;;;;;26.90;14.47;;;;;;;0.05;69.21;100044.00;1695686;84;25676;-56
2021/01/31 02:52:18;;;;;;;26.00;13.93;;;;;;;0.02;69.07;100046.36;1705827;82;25730;-56
2021/01/31 02:55:11;;;;;;;37.17;15.70;;;;;;;-0.01;68.92;100066.38;1705774;84;25710;-56
2021/01/31 02:58:08;;;;;;;26.85;14.75;;;;;;;0.02;69.09;100062.70;1705785;84;28567;-56
2021/01/31 03:00:50;;;;;;;23.57;14.55;;;;;;;0.12;69.22;100065.22;1741458;81;25771;-56
2021/01/31 03:03:32;;;;;;;25.72;13.90;;;;;;;0.15;68.86;100071.64;1788463;80;25635;-56
2021/01/31 03:06:04;;;;;;;24.72;13.98;;;;;;;0.13;68.50;100084.96;1795645;78;25655;-56
2021/01/31 03:08:41;;;;;;;23.57;13.22;;;;;;;0.10;68.34;100100.98;1799885;79;26104;-56
2021/01/31 03:11:14;;;;;;;25.25;14.30;;;;;;;0.05;68.30;100086.31;1799801;79;27958;-56
2021/01/31 03:13:54;;;;;;;22.82;13.70;;;;;;;0.01;68.24;100096.70;1799459;79;25706;-56
2021/01/31 03:16:30;;;;;;;25.02;12.47;;;;;;;-0.05;68.47;100109.33;1799881;79;25568;-56
2021/01/31 03:19:03;;;;;;;30.15;15.10;;;;;;;-0.08;68.71;100100.69;1799871;79;25735;-56
2021/01/31 03:21:33;;;;;;;25.75;14.35;;;;;;;-0.13;68.82;100108.88;1800032;79;25699;-56
2021/01/31 03:24:18;;;;;;;18.67;12.20;;;;;;;-0.17;69.08;100112.16;1799743;79;27485;-56
2021/01/31 03:26:55;;;;;;;25.12;13.58;;;;;;;-0.17;69.32;100120.09;1774788;79;26041;-56
2021/01/31 03:29:29;;;;;;;27.17;15.58;;;;;;;-0.21;69.52;100129.14;1799642;79;25665;-56
2021/01/31 03:32:11;;;;;;;24.65;14.00;;;;;;;-0.24;69.51;100131.09;1799831;79;25662;-55
2021/01/31 03:34:59;;;;;;;26.35;14.38;;;;;;;-0.25;69.60;100133.35;1799874;79;25630;-56
2021/01/31 03:37:48;;;;;;;26.93;13.90;;;;;;;-0.20;69.59;100124.69;1833309;78;25521;-57
2021/01/31 03:40:18;;;;;;;21.95;12.10;;;;;;;-0.20;69.60;100132.63;1804997;79;26538;-57
2021/01/31 03:42:47;;;;;;;21.77;11.95;;;;;;;-0.17;69.33;100128.02;1735525;82;27482;-57
2021/01/31 03:45:20;;;;;;;21.52;11.18;;;;;;;-0.18;68.59;100124.98;1722240;82;26605;-57
2021/01/31 03:48:02;;;;;;;24.47;13.18;;;;;;;-0.20;68.66;100126.01;1746762;82;25664;-57
2021/01/31 03:50:31;;;;;;;19.17;11.22;;;;;;;-0.17;68.73;100140.40;1730526;82;25463;-57
2021/01/31 03:53:01;;;;;;;23.65;10.60;;;;;;;-0.21;67.93;100142.80;1741038;82;26219;-57
2021/01/31 03:55:29;;;;;;;21.02;10.98;;;;;;;-0.20;67.98;100142.75;1740790;82;27973;-57
2021/01/31 03:58:01;;;;;;;21.33;9.65;;;;;;;-0.19;67.59;100141.81;1740899;82;25697;-57
2021/01/31 04:00:34;;;;;;;16.27;9.13;;;;;;;-0.15;67.33;100142.50;1767545;81;25663;-57
2021/01/31 04:03:19;;;;;;;13.90;8.98;;;;;;;-0.13;67.17;100146.37;1740867;82;25732;-57
2021/01/31 04:06:01;;;;;;;14.47;8.50;;;;;;;-0.14;66.59;100149.50;1728533;82;25660;-56
2021/01/31 04:08:32;;;;;;;12.33;8.73;;;;;;;-0.11;66.99;100155.92;1736843;82;27540;-55
2021/01/31 04:11:00;;;;;;;17.87;8.43;;;;;;;-0.07;66.88;100140.28;1736932;82;25700;-55
2021/01/31 04:13:32;;;;;;;13.28;7.22;;;;;;;-0.01;66.73;100148.36;1736994;82;25507;-55
2021/01/31 04:16:08;;;;;;;11.93;7.20;;;;;;;-0.01;66.03;100160.26;1735335;82;25727;-56
2021/01/31 04:18:36;;;;;;;12.93;8.08;;;;;;;0.00;66.33;100167.26;1737004;82;25691;-55
2021/01/31 04:21:04;;;;;;;14.03;8.48;;;;;;;0.04;66.41;100167.94;1736815;82;27537;-56
2021/01/31 04:23:33;;;;;;;13.40;8.28;;;;;;;0.08;66.50;100158.44;1736883;82;25632;-56
2021/01/31 04:26:00;;;;;;;15.68;8.70;;;;;;;0.10;66.40;100158.34;1736411;82;25632;-56
2021/01/31 04:28:28;;;;;;;16.93;9.23;;;;;;;0.15;66.28;100168.19;1747172;80;25747;-54
2021/01/31 04:30:57;;;;;;;15.38;8.20;;;;;;;0.14;65.94;100166.47;1767239;81;25605;-56
2021/01/31 04:33:28;;;;;;;15.15;7.75;;;;;;;0.14;65.96;100174.41;1767886;81;26120;-56
2021/01/31 04:35:56;;;;;;;13.75;8.10;;;;;;;0.10;65.51;100187.44;1768759;81;25659;-55
2021/01/31 04:38:24;;;;;;;11.00;6.95;;;;;;;0.08;65.76;100188.84;1751746;81;25663;-55
2021/01/31 04:40:59;;;;;;;13.20;7.92;;;;;;;0.11;65.70;100192.63;1758480;80;25667;-55
2021/01/31 04:43:30;;;;;;;13.35;7.15;;;;;;;0.12;65.62;100196.14;1763105;81;25596;-56
2021/01/31 04:46:00;;;;;;;12.07;7.10;;;;;;;0.09;65.62;100199.78;1763055;81;27526;-56
2021/01/31 04:49:01;;;;;;;11.55;7.42;;;;;;;0.12;65.59;100206.73;1769221;79;26175;-56
2021/01/31 04:51:40;;;;;;;17.70;8.98;;;;;;;0.09;65.49;100207.72;1793907;79;25478;-57
2021/01/31 04:54:32;;;;;;;14.23;8.00;;;;;;;0.04;65.07;100210.26;1793837;79;25474;-57
2021/01/31 04:57:20;;;;;;;13.38;8.53;;;;;;;0.05;65.60;100201.36;1794029;79;25654;-56
2021/01/31 04:59:51;;;;;;;16.87;9.00;;;;;;;0.08;65.53;100211.78;1793971;79;27948;-57
2021/01/31 05:02:41;;;;;;;11.73;7.25;;;;;;;0.10;65.47;100221.82;1793969;79;25682;-57
2021/01/31 05:05:20;;;;;;;12.37;7.95;;;;;;;0.11;64.99;100232.79;1788867;79;25701;-57
2021/01/31 05:08:02;;;;;;;15.13;8.95;;;;;;;0.12;65.30;100236.66;1762123;81;26186;-57
2021/01/31 05:10:30;;;;;;;15.30;8.83;;;;;;;0.15;65.18;100247.09;1762370;81;26089;-56
2021/01/31 05:13:20;;;;;;;13.88;7.80;;;;;;;0.22;65.30;100248.08;1788694;78;28058;-57
2021/01/31 05:16:10;;;;;;;12.63;7.45;;;;;;;0.19;64.68;100242.48;1776301;79;26155;-57
2021/01/31 05:18:45;;;;;;;19.12;8.80;;;;;;;0.20;64.46;100236.71;1799925;79;25659;-57
2021/01/31 05:21:18;;;;;;;13.35;7.70;;;;;;;0.16;64.74;100242.64;1799831;79;25651;-57
2021/01/31 05:24:02;;;;;;;13.50;7.92;;;;;;;0.17;64.78;100248.80;1780246;79;25642;-57
2021/01/31 05:26:39;;;;;;;14.85;8.53;;;;;;;0.19;64.60;100265.42;1762586;80;26859;-56
2021/01/31 05:29:13;;;;;;;17.35;8.30;;;;;;;0.19;65.04;100263.64;1762311;81;25637;-56
2021/01/31 05:31:47;;;;;;;15.08;8.33;;;;;;;0.23;64.92;100259.88;1762092;81;25763;-56
2021/01/31 05:34:16;;;;;;;16.17;9.30;;;;;;;0.26;65.11;100261.53;1760851;81;25691;-56
2021/01/31 05:36:50;;;;;;;15.18;8.85;;;;;;;0.26;65.05;100264.18;1742505;81;26143;-56
2021/01/31 05:39:22;;;;;;;;;;;;;;;0.33;65.33;100264.23;1733928;82;27626;-56
2021/01/31 05:41:50;;;;;;;17.67;8.83;;;;;;;0.37;64.91;100269.72;1715704;83;26159;-56
2021/01/31 05:44:24;;;;;;;20.30;9.50;;;;;;;0.35;64.88;100266.78;1720055;83;25671;-56
2021/01/31 05:47:05;;;;;;;20.23;10.80;;;;;;;0.36;64.80;100273.78;1716636;83;25694;-56
2021/01/31 05:49:44;;;;;;;20.08;10.23;;;;;;;0.34;64.76;100278.30;1690538;84;25773;-56
2021/01/31 05:52:26;;;;;;;17.87;9.70;;;;;;;0.30;64.86;100283.78;1677019;85;28511;-56
2021/01/31 05:54:56;;;;;;;17.07;10.08;;;;;;;0.33;64.71;100285.84;1704541;84;25647;-56
2021/01/31 05:57:34;;;;;;;17.98;10.60;;;;;;;0.31;64.58;100292.08;1740031;82;25625;-56
2021/01/31 06:00:32;;;;;;;14.45;8.85;;;;;;;0.33;64.79;100293.78;1739960;82;25755;-56
2021/01/31 06:03:06;;;;;;;18.25;9.25;;;;;;;0.37;64.84;100297.99;1740089;82;25658;-56
2021/01/31 06:05:36;;;;;;;16.97;9.15;;;;;;;0.41;64.94;100295.09;1749577;81;26776;-56
2021/01/31 06:08:30;;;;;;;17.62;10.45;;;;;;;0.44;65.04;100307.30;1768907;80;25674;-56
2021/01/31 06:11:24;;;;;;;17.52;9.83;;;;;;;0.45;64.43;100311.66;1768760;81;25683;-56
2021/01/31 06:14:13;;;;;;;22.55;11.15;;;;;;;0.51;64.78;100299.41;1745474;79;25686;-56
2021/01/31 06:16:44;;;;;;;19.48;9.28;;;;;;;0.56;64.80;100303.13;1737938;82;26134;-56
2021/01/31 06:19:31;;;;;;;20.45;11.35;;;;;;;0.57;64.14;100307.48;1739978;82;27600;-56
2021/01/31 06:21:59;;;;;;;20.17;9.80;;;;;;;0.50;63.98;100308.28;1739999;82;25670;-56
2021/01/31 06:24:36;;;;;;;15.43;9.83;;;;;;;0.49;64.44;100299.98;1781606;79;25606;-56
2021/01/31 06:27:06;;;;;;;21.42;10.48;;;;;;;0.49;64.35;100302.63;1797048;79;25690;-56
2021/01/31 06:29:51;;;;;;;18.95;10.10;;;;;;;0.53;64.51;100305.48;1797556;79;26228;-55
2021/01/31 06:32:25;;;;;;;21.42;10.50;;;;;;;0.51;64.25;100318.42;1797280;79;28495;-56
2021/01/31 06:34:58;;;;;;;18.37;11.35;;;;;;;0.48;64.31;100313.28;1797661;79;25734;-56
2021/01/31 06:37:48;;;;;;;;;;;;;;;0.54;64.65;100316.94;1817756;78;25575;-56
2021/01/31 06:40:42;;;;;;;18.98;8.93;;;;;;;0.58;64.60;100311.37;1820260;78;25671;-56
2021/01/31 06:43:46;;;;;;;18.05;9.80;;;;;;;0.63;64.60;100313.77;1800579;79;25720;-56
2021/01/31 06:46:39;;;;;;;19.85;10.72;;;;;;;0.66;64.40;100322.03;1717817;82;27540;-56
2021/01/31 06:49:37;;;;;;;21.25;10.58;;;;;;;0.68;64.33;100328.08;1720831;83;25668;-55
2021/01/31 06:52:22;;;;;;;15.85;9.30;;;;;;;0.64;64.36;100331.36;1733973;82;25585;-56
2021/01/31 06:55:43;;;;;;;18.48;10.78;;;;;;;0.71;64.44;100341.16;1720806;83;25802;-56
2021/01/31 06:58:34;;;;;;;20.85;10.65;;;;;;;0.68;64.21;100336.02;1733909;82;26136;-57
2021/01/31 07:01:41;;;;;;;17.67;9.20;;;;;;;0.70;64.46;100325.75;1832774;78;25561;-57
2021/01/31 07:04:30;;;;;;;17.60;10.38;;;;;;;0.63;63.98;100319.06;1778977;80;25670;-56
2021/01/31 07:07:43;;;;;;;22.58;10.95;;;;;;;0.62;64.15;100323.52;1774120;79;27363;-56
2021/01/31 07:10:55;;;;;;;22.60;12.45;;;;;;;0.61;64.17;100323.12;1736946;82;25657;-56
2021/01/31 07:13:48;;;;;;;18.32;10.35;;;;;;;0.62;64.30;100330.12;1710450;83;25725;-56
2021/01/31 07:16:24;;;;;;;24.82;13.43;;;;;;;0.65;64.21;100338.37;1737063;82;25661;-57
2021/01/31 07:19:12;;;;;;;25.30;12.35;;;;;;;0.61;63.79;100332.88;1711181;82;25799;-56
2021/01/31 07:22:05;;;;;;;22.58;11.03;;;;;;;0.58;64.06;100332.55;1718855;82;28530;-56
2021/01/31 07:24:50;;;;;;;17.73;10.45;;;;;;;0.62;64.04;100334.10;1711298;83;25632;-57
2021/01/31 07:27:51;;;;;;;17.95;9.93;;;;;;;0.66;63.85;100311.45;1737038;82;25844;-57
2021/01/31 07:30:41;;;;;;;18.97;11.40;;;;;;;0.77;63.99;100319.17;1785021;78;32521;-57
2021/01/31 07:33:26;;;;;;;17.02;10.10;;;;;;;0.88;63.95;100327.84;1775152;80;26314;-57
2021/01/31 07:36:22;;;;;;;14.80;9.28;;;;;;;0.99;63.82;100340.97;1775254;80;27518;-57
2021/01/31 07:39:04;;;;;;;17.73;9.90;;;;;;;1.05;63.35;100333.54;1775113;80;26285;-57
2021/01/31 07:41:34;;;;;;;16.10;9.55;;;;;;;1.09;63.18;100328.92;1773738;80;25677;-57
2021/01/31 07:44:08;;;;;;;17.27;9.93;;;;;;;1.08;62.78;100322.75;1766913;80;25715;-57
2021/01/31 07:46:37;;;;;;;18.80;9.00;;;;;;;1.04;62.91;100326.53;1744415;82;25621;-57
2021/01/31 07:49:08;;;;;;;16.42;9.30;;;;;;;0.97;62.57;100329.59;1744398;82;28589;-57
2021/01/31 07:51:42;;;;;;;18.02;9.75;;;;;;;0.97;62.87;100334.44;1744111;82;25673;-57
2021/01/31 07:54:24;;;;;;;21.57;11.33;;;;;;;0.99;62.56;100333.86;1744183;82;33967;-57
2021/01/31 07:56:55;;;;;;;20.77;9.95;;;;;;;0.96;62.75;100338.02;1719063;82;25744;-58
2021/01/31 07:59:28;;;;;;;18.80;10.53;;;;;;;0.96;62.78;100347.30;1744117;82;26254;-57
2021/01/31 08:01:58;;;;;;;21.07;10.30;;;;;;;0.97;62.54;100342.84;1744358;82;27535;-57
2021/01/31 08:04:40;;;;;;;23.27;10.25;;;;;;;0.96;61.66;100344.64;1744144;82;25736;-57
2021/01/31 08:07:09;;;;;;;24.00;11.88;;;;;;;0.88;62.34;100341.56;1744322;81;25739;-57
2021/01/31 08:09:42;;;;;;;22.30;10.20;;;;;;;0.86;61.58;100346.09;1744357;82;25660;-57
2021/01/31 08:12:14;;;;;;;19.95;11.15;;;;;;;0.86;61.95;100340.79;1744277;82;25448;-57
2021/01/31 08:15:12;;;;;;;17.85;10.88;;;;;;;0.76;62.15;100363.80;1743983;82;28432;-57
2021/01/31 08:17:58;;;;;;;24.75;11.63;;;;;;;0.76;62.71;100380.17;1744318;82;25509;-56
2021/01/31 08:20:37;;;;;;;23.62;10.68;;;;;;;0.78;62.86;100383.12;1744935;80;25663;-56
2021/01/31 08:23:26;;;;;;;22.07;12.15;;;;;;;0.83;62.92;100377.57;1746765;82;25457;-57
2021/01/31 08:26:04;;;;;;;22.70;12.43;;;;;;;0.90;62.91;100393.95;1739263;82;25680;-56
2021/01/31 08:28:35;;;;;;;23.22;11.68;;;;;;;0.92;62.71;100403.56;1756583;79;27595;-57
2021/01/31 08:31:15;;;;;;;21.15;11.90;;;;;;;1.01;63.03;100412.78;1781785;80;25745;-57
2021/01/31 08:33:48;;;;;;;25.72;11.90;;;;;;;1.06;62.81;100425.77;1773957;80;25818;-57
2021/01/31 08:36:31;;;;;;;20.08;10.70;;;;;;;1.09;62.37;100417.67;1739980;81;26329;-57
2021/01/31 08:39:00;;;;;;;22.87;12.85;;;;;;;1.09;62.21;100433.08;1752649;81;26074;-57
2021/01/31 08:41:36;;;;;;;23.70;11.57;;;;;;;1.08;62.19;100424.74;1777682;80;27536;-57
2021/01/31 08:44:15;;;;;;;30.08;12.07;;;;;;;1.08;61.92;100430.53;1767672;80;26091;-56
2021/01/31 08:47:00;;;;;;;22.17;11.18;;;;;;;1.09;62.05;100438.86;1782923;79;25693;-56
2021/01/31 08:49:30;;;;;;;23.83;12.47;;;;;;;1.17;62.28;100448.58;1782941;80;25741;-56
2021/01/31 08:52:09;;;;;;;23.10;12.78;;;;;;;1.20;62.16;100448.41;1782940;79;25746;-56
2021/01/31 08:54:38;;;;;;;21.85;12.33;;;;;;;1.20;62.02;100460.80;1782934;80;27537;-56
2021/01/31 08:57:11;;;;;;;27.62;15.40;;;;;;;1.18;62.05;100452.94;1783030;80;25741;-57
2021/01/31 08:59:47;;;;;;;25.23;14.47;;;;;;;1.18;61.87;100464.86;1783100;80;25646;-56
2021/01/31 09:02:27;;;;;;;21.80;12.18;;;;;;;1.16;62.13;100465.41;1783058;79;25500;-56
2021/01/31 09:05:06;;;;;;;26.33;13.05;;;;;;;1.18;62.10;100463.98;1782977;80;25628;-56
2021/01/31 09:07:44;;;;;;;24.07;12.47;;;;;;;1.20;62.36;100463.44;1781172;80;27668;-56
2021/01/31 09:10:39;;;;;;;22.02;12.47;;;;;;;1.20;62.29;100464.31;1716955;83;25727;-56
2021/01/31 09:13:12;;;;;;;23.20;12.47;;;;;;;1.19;62.58;100471.88;1721579;82;25822;-56
2021/01/31 09:15:41;;;;;;;;;;;;;;;1.24;62.83;100472.95;1716183;83;25668;-58
2021/01/31 09:18:21;;;;;;;25.43;13.65;;;;;;;1.26;62.80;100475.02;1713469;83;25658;-56
2021/01/31 09:20:51;;;;;;;26.77;13.28;;;;;;;1.31;63.12;100474.77;1713574;83;27519;-56
2021/01/31 09:23:35;;;;;;;23.35;12.95;;;;;;;1.36;63.32;100492.62;1720795;82;25741;-56
2021/01/31 09:26:05;;;;;;;23.25;13.18;;;;;;;1.40;63.22;100484.87;1744460;82;25688;-56
2021/01/31 09:28:33;;;;;;;23.83;13.53;;;;;;;1.47;63.52;100474.34;1744257;82;25623;-56
2021/01/31 09:31:03;;;;;;;24.18;13.83;;;;;;;1.51;63.42;100477.67;1738950;82;25763;-56
2021/01/31 09:33:40;;;;;;;26.33;13.90;;;;;;;1.51;63.55;100477.19;1735660;82;27743;-55
2021/01/31 09:36:32;;;;;;;25.25;13.98;;;;;;;1.52;63.80;100478.91;1735734;82;25632;-56
2021/01/31 09:39:03;;;;;;;28.40;14.23;;;;;;;1.60;63.87;100473.64;1735379;82;25660;-56
2021/01/31 09:41:33;;;;;;;30.85;15.23;;;;;;;1.55;63.56;100477.41;1742830;80;25607;-55
2021/01/31 09:44:08;;;;;;;29.77;15.53;;;;;;;1.51;63.59;100485.14;1743923;82;25753;-56
2021/01/31 09:46:37;;;;;;;24.25;13.80;;;;;;;1.51;63.68;100488.28;1744018;82;27337;-56
2021/01/31 09:49:19;;;;;;;29.40;15.18;;;;;;;1.49;63.70;100488.34;1744013;82;25802;-56
2021/01/31 09:51:48;;;;;;;22.82;12.68;;;;;;;1.48;63.72;100492.41;1743868;82;25706;-56
2021/01/31 09:54:20;;;;;;;25.05;14.15;;;;;;;1.47;63.69;100501.30;1743981;82;25686;-56
2021/01/31 09:56:55;;;;;;;22.20;13.60;;;;;;;1.47;63.92;100507.47;1744007;82;25762;-56
2021/01/31 09:59:36;;;;;;;25.48;14.50;;;;;;;1.50;63.84;100500.66;1744001;82;27539;-56
2021/01/31 10:02:21;;;;;;;28.92;16.82;;;;;;;1.52;63.93;100500.59;1743900;82;26033;-56
2021/01/31 10:04:59;;;;;;;33.78;16.67;;;;;;;1.53;64.13;100507.58;1743883;82;25719;-56
2021/01/31 10:07:39;;;;;;;28.85;15.63;;;;;;;1.58;64.14;100497.59;1735814;82;26426;-56
2021/01/31 10:10:40;;;;;;;25.20;14.50;;;;;;;1.64;63.99;100497.24;1735359;82;25491;-56
2021/01/31 10:13:19;;;;;;;27.13;15.63;;;;;;;1.68;64.06;100504.55;1751441;79;27616;-56
2021/01/31 10:15:57;;;;;;;29.12;14.98;;;;;;;1.70;64.00;100512.80;1775509;80;25705;-56
2021/01/31 10:18:37;;;;;;;26.60;14.30;;;;;;;1.74;63.95;100506.89;1775359;80;25663;-56
2021/01/31 10:21:28;;;;;;;24.10;14.38;;;;;;;1.76;63.87;100503.66;1775476;80;26451;-56
2021/01/31 10:24:20;;;;;;;25.77;15.03;;;;;;;1.77;63.78;100502.71;1789422;79;25762;-56
2021/01/31 10:26:48;;;;;;;25.88;14.70;;;;;;;1.73;63.68;100514.45;1735470;81;27383;-56
2021/01/31 10:29:30;;;;;;;25.00;13.90;;;;;;;1.75;63.39;100519.66;1735715;82;26165;-56
2021/01/31 10:32:40;;;;;;;25.40;14.78;;;;;;;1.66;63.40;100518.39;1743440;81;25525;-57
2021/01/31 10:35:30;;;;;;;25.62;14.25;;;;;;;1.61;63.56;100519.10;1743402;82;25575;-56
2021/01/31 10:38:27;;;;;;;30.35;16.15;;;;;;;1.58;63.60;100518.80;1743484;81;25809;-57
2021/01/31 10:40:58;;;;;;;28.83;15.03;;;;;;;1.55;63.77;100520.29;1722133;82;27610;-57
2021/01/31 10:43:27;;;;;;;27.37;14.80;;;;;;;1.55;63.97;100523.81;1741201;82;25683;-56
2021/01/31 10:45:55;;;;;;;25.27;14.85;;;;;;;1.55;63.70;100526.47;1741268;82;25763;-57
2021/01/31 10:48:24;;;;;;;25.88;14.53;;;;;;;1.50;63.44;100529.82;1741363;82;26455;-57
2021/01/31 10:50:52;;;;;;;23.80;14.00;;;;;;;1.47;63.55;100530.02;1741369;82;25683;-57
2021/01/31 10:53:20;;;;;;;29.65;15.63;;;;;;;1.45;63.59;100528.36;1741321;82;27645;-57
2021/01/31 10:55:48;;;;;;;28.62;17.00;;;;;;;1.49;63.76;100525.45;1741117;82;25664;-57
2021/01/31 10:58:17;;;;;;;25.92;15.32;;;;;;;1.55;63.86;100525.59;1741216;82;25663;-56
2021/01/31 11:00:45;;;;;;;27.62;15.20;;;;;;;1.56;63.65;100516.25;1741361;82;25464;-57
2021/01/31 11:03:13;;;;;;;25.88;15.65;;;;;;;1.60;63.61;100522.23;1767124;80;25651;-57
2021/01/31 11:05:43;;;;;;;32.53;15.85;;;;;;;1.64;63.47;100528.22;1760225;80;27591;-57
2021/01/31 11:08:11;;;;;;;30.15;16.87;;;;;;;1.67;63.70;100534.20;1708334;83;25714;-57
2021/01/31 11:10:39;;;;;;;33.98;16.20;;;;;;;1.77;63.97;100529.23;1741277;82;25688;-56
2021/01/31 11:13:07;;;;;;;27.50;16.52;;;;;;;1.90;64.05;100531.22;1708289;83;25665;-57
2021/01/31 11:15:35;;;;;;;29.72;16.52;;;;;;;1.96;64.27;100531.73;1741286;82;25908;-56
2021/01/31 11:18:04;;;;;;;30.30;16.27;;;;;;;1.96;64.01;100533.06;1708430;83;27452;-57
2021/01/31 11:20:32;;;;;;;26.68;16.57;;;;;;;1.98;63.89;100544.41;1741184;82;25723;-56
2021/01/31 11:23:00;;;;;;;29.77;16.07;;;;;;;1.98;64.07;100540.92;1708479;83;26085;-57
2021/01/31 11:25:28;;;;;;;35.08;16.57;;;;;;;1.91;63.79;100544.87;1741312;82;25721;-57
2021/01/31 11:27:57;;;;;;;25.52;15.48;;;;;;;1.82;63.97;100553.73;1708416;83;26123;-57
2021/01/31 11:30:26;;;;;;;30.97;16.45;;;;;;;1.75;63.88;100544.38;1738100;81;27535;-56
2021/01/31 11:32:54;;;;;;;32.30;16.93;;;;;;;1.70;64.18;100548.61;1700452;84;25786;-57
2021/01/31 11:35:24;;;;;;;31.80;18.02;;;;;;;1.65;64.19;100559.95;1675361;85;25661;-56
2021/01/31 11:37:52;;;;;;;27.00;15.70;;;;;;;1.60;64.53;100557.16;1700260;84;26156;-57
2021/01/31 11:40:21;;;;;;;27.80;15.50;;;;;;;1.47;65.01;100555.19;1675378;84;25791;-57
2021/01/31 11:42:51;;;;;;;29.98;15.60;;;;;;;1.34;64.94;100560.75;1700324;84;27540;-57
2021/01/31 11:45:21;;;;;;;30.55;17.20;;;;;;;1.31;65.31;100556.48;1675199;84;25542;-56
2021/01/31 11:47:49;;;;;;;27.30;15.43;;;;;;;1.25;65.27;100552.84;1675403;85;25733;-56
2021/01/31 11:50:17;;;;;;;37.25;16.85;;;;;;;1.25;65.51;100556.33;1683184;85;26063;-57
2021/01/31 11:52:46;;;;;;;30.40;16.65;;;;;;;1.24;65.53;100546.66;1683311;85;26128;-57
2021/01/31 11:55:15;;;;;;;31.73;15.18;;;;;;;1.25;65.88;100555.48;1683084;85;27550;-57
2021/01/31 11:57:43;;;;;;;29.57;15.78;;;;;;;1.24;65.84;100553.77;1683079;85;26136;-57
2021/01/31 12:00:16;;;;;;;30.30;16.30;;;;;;;1.25;66.04;100543.08;1683295;85;25732;-57
2021/01/31 12:02:44;;;;;;;29.93;16.67;;;;;;;1.24;66.09;100543.17;1683473;85;26258;-57
2021/01/31 12:05:16;;;;;;;29.80;16.42;;;;;;;1.28;66.08;100534.10;1683231;84;25621;-56
2021/01/31 12:07:45;;;;;;;23.10;14.87;;;;;;;1.36;66.12;100535.87;1683343;85;27600;-56